Time;durP1;ratioP1;P1;durP2;ratioP2;P2;SDS_P1;SDS_P2;PMS_P1;PMS_P2;Temp;Humidity;BMP_temperature;BMP_pressure;BME280_temperature;BME280_humidity;BME280_pressure;Samples;Min_cycle;Max_cycle;Signal;HPM_P1;HPM_P2
2022/04/09 00:02:09;;;;;;;10.00;2.50;;;;;;;0.38;97.82;97498.46;104851;1274;62008;-62
2022/04/09 00:04:57;;;;;;;7.40;2.00;;;;;;;0.37;97.81;97503.92;104723;1275;74495;-64
2022/04/09 00:07:45;;;;;;;6.50;2.00;;;;;;;0.35;97.86;97507.55;104798;1274;68615;-64
2022/04/09 00:10:33;;;;;;;6.00;2.20;;;;;;;0.33;98.09;97507.58;104745;1274;73265;-64
2022/04/09 00:13:21;;;;;;;7.50;2.70;;;;;;;0.28;98.32;97502.88;104935;1274;59575;-64
2022/04/09 00:16:10;;;;;;;7.50;2.80;;;;;;;0.24;98.76;97506.64;104985;1274;59669;-62
2022/04/09 00:18:58;;;;;;;9.50;3.10;;;;;;;0.22;98.35;97507.21;104729;1274;73775;-64
2022/04/09 00:21:46;;;;;;;8.20;3.00;;;;;;;0.19;98.93;97507.23;104872;1274;67408;-63
2022/04/09 00:24:35;;;;;;;7.30;2.50;;;;;;;0.16;99.10;97501.32;105115;1274;71455;-64
2022/04/09 00:27:24;;;;;;;9.00;3.00;;;;;;;0.14;99.84;97506.89;104271;1274;1003794;-64
2022/04/09 00:30:12;;;;;;;9.80;3.30;;;;;;;0.13;99.61;97509.05;104866;1274;60436;-62
2022/04/09 00:33:00;;;;;;;8.00;3.20;;;;;;;0.12;99.82;97506.36;104962;1274;74026;-65
2022/04/09 00:35:50;;;;;;;10.40;3.70;;;;;;;0.12;99.65;97504.41;104872;1274;67385;-64
2022/04/09 00:38:38;;;;;;;12.90;4.20;;;;;;;0.13;99.72;97513.09;104783;1274;73600;-63
2022/04/09 00:41:26;;;;;;;9.70;4.00;;;;;;;0.13;99.62;97513.05;104652;1274;59787;-65
2022/04/09 00:44:19;;;;;;;10.20;3.40;;;;;;;0.14;99.72;97514.19;104629;1274;62397;-64
2022/04/09 00:47:08;;;;;;;7.60;2.70;;;;;;;0.16;99.67;97515.50;104890;1274;74502;-65
2022/04/09 00:49:56;;;;;;;9.20;3.10;;;;;;;0.15;99.88;97514.33;104704;1274;68526;-63
2022/04/09 00:52:57;;;;;;;8.90;3.30;;;;;;;0.15;99.63;97513.95;104719;1274;73889;-64
2022/04/09 00:59:01;;;;;;;11.70;3.80;;;;;;;0.16;99.78;97509.91;104646;1274;59598;-67
2022/04/09 01:01:52;;;;;;;10.90;3.40;;;;;;;0.17;99.94;97516.25;104924;1274;74348;-63
2022/04/09 01:04:42;;;;;;;9.00;3.80;;;;;;;0.20;99.78;97515.73;104732;1274;69330;-63
2022/04/09 01:07:31;;;;;;;12.90;4.70;;;;;;;0.24;99.63;97518.55;104514;1274;73054;-62
2022/04/09 01:10:19;;;;;;;9.30;3.80;;;;;;;0.27;99.26;97521.80;104966;1274;60408;-64
2022/04/09 01:13:07;;;;;;;10.50;3.80;;;;;;;0.30;99.07;97525.01;104632;1274;59779;-62
2022/04/09 01:15:56;;;;;;;7.80;3.30;;;;;;;0.33;98.93;97526.75;104789;1274;74853;-63
2022/04/09 01:18:44;;;;;;;8.00;2.90;;;;;;;0.34;98.71;97524.58;104917;1274;68781;-62
2022/04/09 01:21:34;;;;;;;7.20;2.70;;;;;;;0.35;98.87;97529.20;104962;1274;71838;-62
2022/04/09 01:24:23;;;;;;;8.50;3.10;;;;;;;0.38;99.27;97525.33;104857;1275;59732;-64
2022/04/09 01:27:13;;;;;;;8.00;3.20;;;;;;;0.40;99.07;97521.70;104692;1274;61053;-64
2022/04/09 01:30:02;;;;;;;9.30;3.90;;;;;;;0.41;99.09;97515.36;104551;1275;73619;-65
2022/04/09 01:32:50;;;;;;;8.40;3.90;;;;;;;0.42;98.95;97524.14;104752;1274;68939;-65
2022/04/09 01:35:41;;;;;;;10.00;4.40;;;;;;;0.42;98.75;97523.42;105019;1274;73521;-64
2022/04/09 01:38:29;;;;;;;8.30;3.80;;;;;;;0.42;98.79;97518.16;105828;1274;59611;-65
2022/04/09 01:41:17;;;;;;;8.40;3.10;;;;;;;0.41;98.79;97519.50;105703;1274;60522;-62
2022/04/09 01:44:16;;;;;;;8.40;3.80;;;;;;;0.40;99.05;97524.64;105396;1274;74741;-62
2022/04/09 01:47:04;;;;;;;7.70;3.00;;;;;;;0.39;99.09;97523.17;104896;1274;69444;-64
2022/04/09 01:49:53;;;;;;;9.80;4.20;;;;;;;0.37;99.51;97527.69;104791;1274;73703;-65
2022/04/09 01:52:42;;;;;;;8.70;4.00;;;;;;;0.36;99.40;97527.96;104702;1275;59746;-62
2022/04/09 01:55:32;;;;;;;8.30;3.80;;;;;;;0.36;99.60;97529.16;104699;1274;60789;-62
2022/04/09 01:58:20;;;;;;;8.70;4.10;;;;;;;0.34;99.68;97533.11;104690;1274;73646;-63
2022/04/09 02:01:08;;;;;;;8.00;3.70;;;;;;;0.33;99.63;97535.79;104800;1274;69496;-62
2022/04/09 02:03:57;;;;;;;8.00;2.90;;;;;;;0.32;99.52;97533.08;104717;1274;75236;-62
2022/04/09 02:06:45;;;;;;;9.20;3.70;;;;;;;0.30;99.74;97530.62;104695;1274;59673;-62
2022/04/09 02:09:33;;;;;;;9.10;3.50;;;;;;;0.28;99.47;97535.11;104857;1274;60500;-65
2022/04/09 02:12:21;;;;;;;8.90;3.90;;;;;;;0.26;99.38;97535.25;104510;1275;74728;-62
2022/04/09 02:15:15;;;;;;;10.00;4.50;;;;;;;0.25;99.64;97539.23;104670;1275;67222;-62
2022/04/09 02:18:03;;;;;;;8.00;3.80;;;;;;;0.24;99.84;97535.30;104765;1274;74062;-63
2022/04/09 02:20:53;;;;;;;10.20;4.10;;;;;;;0.23;99.91;97532.37;105042;1274;59777;-60
2022/04/09 02:23:40;;;;;;;11.30;4.90;;;;;;;0.24;99.94;97537.90;104866;1274;60512;-63
2022/04/09 02:26:28;;;;;;;8.30;4.00;;;;;;;0.24;99.98;97540.37;104950;1274;74357;-64
2022/04/09 02:29:16;;;;;;;8.60;4.00;;;;;;;0.24;99.97;97545.39;104673;1275;69434;-63
2022/04/09 02:32:05;;;;;;;7.70;4.10;;;;;;;0.23;99.78;97540.77;104423;1275;74449;-63
2022/04/09 02:34:56;;;;;;;9.40;4.70;;;;;;;0.22;99.97;97539.25;104305;1277;60647;-64
2022/04/09 02:37:46;;;;;;;10.50;4.60;;;;;;;0.21;99.71;97543.69;104276;1277;59548;-62
2022/04/09 02:40:35;;;;;;;9.80;4.10;;;;;;;0.20;99.53;97539.05;104341;1277;74843;-63
2022/04/09 02:43:23;;;;;;;8.80;4.60;;;;;;;0.20;99.56;97539.59;104649;1277;69192;-66
2022/04/09 02:46:12;;;;;;;9.10;4.30;;;;;;;0.21;99.74;97540.42;104406;1277;73442;-63
2022/04/09 02:49:03;;;;;;;9.40;4.80;;;;;;;0.21;99.76;97536.89;104293;1278;59842;-64
2022/04/09 02:51:51;;;;;;;8.50;4.10;;;;;;;0.22;99.63;97541.15;104557;1277;59807;-65
2022/04/09 02:54:41;;;;;;;7.50;3.40;;;;;;;0.21;99.40;97542.48;104345;1277;72704;-63
2022/04/09 02:57:37;;;;;;;9.80;4.30;;;;;;;0.20;99.19;97541.50;104286;1278;70036;-63
2022/04/09 03:00:26;;;;;;;9.20;4.40;;;;;;;0.19;99.07;97539.70;104321;1278;72519;-65
2022/04/09 03:03:21;;;;;;;8.20;3.80;;;;;;;0.19;98.89;97545.48;104346;1277;59684;-67
2022/04/09 03:06:10;;;;;;;9.80;4.10;;;;;;;0.20;99.26;97549.35;104976;1275;59662;-67
2022/04/09 03:08:59;;;;;;;7.80;3.20;;;;;;;0.24;99.63;97553.05;104795;1274;73289;-67
2022/04/09 03:11:47;;;;;;;7.70;3.30;;;;;;;0.28;99.67;97558.14;104742;1275;68697;-67
2022/04/09 03:14:36;;;;;;;7.40;3.50;;;;;;;0.32;99.32;97561.86;104721;1274;73457;-65
2022/04/09 03:17:24;;;;;;;8.00;3.40;;;;;;;0.35;99.16;97563.41;104777;1274;59698;-67
2022/04/09 03:20:12;;;;;;;9.50;3.80;;;;;;;0.39;99.18;97568.69;104742;1274;60496;-67
2022/04/09 03:23:00;;;;;;;8.50;3.90;;;;;;;0.44;98.89;97570.91;104527;1275;73334;-67
2022/04/09 03:25:53;;;;;;;8.70;4.00;;;;;;;0.50;99.20;97574.27;104956;1274;69163;-66
2022/04/09 03:28:43;;;;;;;10.90;3.60;;;;;;;0.57;98.98;97577.48;104672;1274;73802;-67
2022/04/09 03:31:33;;;;;;;7.60;3.60;;;;;;;0.62;98.67;97574.84;104476;1274;59950;-66
2022/04/09 03:34:21;;;;;;;8.40;3.30;;;;;;;0.65;98.55;97568.13;103938;1275;1003008;-70
2022/04/09 03:37:10;;;;;;;8.30;3.40;;;;;;;0.68;98.31;97577.61;104633;1274;74709;-66
2022/04/09 03:40:02;;;;;;;8.80;3.40;;;;;;;0.71;98.09;97574.64;104833;1274;68656;-65
2022/04/09 03:42:50;;;;;;;9.20;3.90;;;;;;;0.71;97.78;97571.84;104655;1274;73273;-67
2022/04/09 03:45:39;;;;;;;9.50;3.60;;;;;;;0.71;97.68;97577.08;104698;1275;60516;-68
2022/04/09 03:48:27;;;;;;;8.80;3.50;;;;;;;0.72;97.51;97582.63;104744;1274;60525;-68
2022/04/09 03:51:17;;;;;;;7.70;3.20;;;;;;;0.72;97.38;97583.98;104721;1274;72412;-65
2022/04/09 03:54:05;;;;;;;7.40;3.30;;;;;;;0.71;97.07;97585.45;104648;1275;67374;-68
2022/04/09 03:56:54;;;;;;;9.70;3.20;;;;;;;0.70;96.79;97588.00;104668;1275;72594;-66
2022/04/09 03:59:51;;;;;;;7.40;3.20;;;;;;;0.67;96.76;97593.95;104558;1275;59696;-66
2022/04/09 04:02:41;;;;;;;8.30;3.50;;;;;;;0.66;96.93;97594.76;104594;1275;61914;-65
2022/04/09 04:05:32;;;;;;;9.70;3.20;;;;;;;0.64;96.51;97595.71;104885;1275;74615;-66
2022/04/09 04:08:21;;;;;;;8.80;2.80;;;;;;;0.62;96.33;97596.23;104569;1274;68537;-66
2022/04/09 04:11:09;;;;;;;6.80;2.60;;;;;;;0.55;96.13;97593.13;104872;1274;73295;-66
2022/04/09 04:13:57;;;;;;;7.30;2.60;;;;;;;0.58;96.12;97603.58;104705;1274;59975;-67
2022/04/09 04:16:46;;;;;;;7.60;2.80;;;;;;;0.56;96.21;97600.73;104661;1275;60622;-68
2022/04/09 04:19:35;;;;;;;8.40;3.00;;;;;;;0.56;96.16;97602.45;104640;1275;73963;-67
2022/04/09 04:22:23;;;;;;;7.60;2.60;;;;;;;0.58;96.17;97601.81;104892;1274;65564;-70
2022/04/09 04:25:12;;;;;;;8.80;3.50;;;;;;;0.63;96.21;97600.70;104731;1274;73503;-68
2022/04/09 04:28:01;;;;;;;8.20;2.50;;;;;;;0.69;95.97;97599.73;104552;1275;59767;-68
2022/04/09 04:30:49;;;;;;;8.80;2.40;;;;;;;0.78;95.81;97601.52;104662;1274;60317;-68
2022/04/09 04:33:38;;;;;;;6.70;2.20;;;;;;;0.84;95.60;97607.69;104893;1275;74418;-67
2022/04/09 04:36:26;;;;;;;9.80;2.70;;;;;;;0.88;95.42;97611.94;104720;1274;67697;-70
2022/04/09 04:39:14;;;;;;;6.90;2.80;;;;;;;0.94;95.10;97612.34;104681;1274;74520;-67
2022/04/09 04:42:07;;;;;;;10.10;2.80;;;;;;;1.01;94.87;97616.14;104723;1274;60366;-64
2022/04/09 04:44:58;;;;;;;8.30;2.30;;;;;;;1.09;94.49;97618.71;104835;1275;61559;-67
2022/04/09 04:47:48;;;;;;;8.70;2.30;;;;;;;1.17;94.26;97616.80;104539;1275;72620;-69
2022/04/09 04:50:39;;;;;;;9.00;2.50;;;;;;;1.27;93.92;97623.06;104888;1275;68939;-69
2022/04/09 04:53:30;;;;;;;8.20;2.90;;;;;;;1.37;93.83;97628.91;104667;1274;73456;-71
2022/04/09 04:56:19;;;;;;;8.50;2.90;;;;;;;1.50;93.63;97629.46;104656;1275;60337;-70
2022/04/09 04:59:15;;;;;;;14.90;4.60;;;;;;;1.67;92.70;97634.41;104639;1274;59569;-68
2022/04/09 05:02:07;;;;;;;14.20;5.10;;;;;;;1.78;91.78;97642.27;105065;1274;73311;-69
2022/04/09 05:04:55;;;;;;;11.90;3.80;;;;;;;1.81;91.60;97654.27;104537;1275;66429;-70
2022/04/09 05:07:49;;;;;;;8.30;3.00;;;;;;;1.75;91.72;97656.36;104660;1275;73565;-67
2022/04/09 05:10:38;;;;;;;8.60;2.60;;;;;;;1.62;92.16;97655.56;104788;1274;60608;-67
2022/04/09 05:13:26;;;;;;;6.30;2.40;;;;;;;1.55;92.68;97664.23;104915;1275;60529;-68
2022/04/09 05:16:15;;;;;;;8.20;2.90;;;;;;;1.45;93.12;97661.14;104692;1274;73781;-67
2022/04/09 05:19:11;;;;;;;6.80;2.60;;;;;;;1.36;93.73;97665.34;104995;1275;68681;-66
2022/04/09 05:22:02;;;;;;;6.00;2.30;;;;;;;1.30;94.12;97666.15;104678;1274;72755;-68
2022/04/09 05:24:52;;;;;;;9.30;2.40;;;;;;;1.25;94.57;97673.83;105051;1274;59665;-70
2022/04/09 05:27:43;;;;;;;9.70;2.70;;;;;;;1.17;94.68;97685.98;104559;1275;60242;-71
2022/04/09 05:30:38;;;;;;;7.50;2.00;;;;;;;1.11;94.87;97691.37;104739;1275;74936;-71
2022/04/09 05:33:27;;;;;;;7.20;2.10;;;;;;;1.11;95.38;97693.77;104711;1275;68703;-69
2022/04/09 05:36:18;;;;;;;7.80;2.60;;;;;;;1.27;95.52;97697.83;104658;1274;74521;-68
2022/04/09 05:39:06;;;;;;;6.00;2.20;;;;;;;1.46;95.07;97702.46;104763;1275;59722;-70
2022/04/09 05:41:55;;;;;;;6.40;2.30;;;;;;;1.52;94.24;97715.83;104685;1274;59681;-69
2022/04/09 05:44:42;;;;;;;7.90;2.80;;;;;;;1.53;94.00;97714.64;104663;1274;74004;-69
2022/04/09 05:47:30;;;;;;;8.30;2.90;;;;;;;1.64;93.65;97714.52;104582;1274;70196;-66
2022/04/09 05:50:18;;;;;;;7.10;3.20;;;;;;;1.62;93.11;97700.92;104690;1275;72123;-68
2022/04/09 05:53:07;;;;;;;9.60;3.70;;;;;;;1.80;92.87;97719.39;104821;1275;59701;-69
2022/04/09 05:55:56;;;;;;;10.10;3.20;;;;;;;1.97;92.75;97724.04;104724;1274;61028;-67
2022/04/09 05:58:45;;;;;;;7.60;3.10;;;;;;;2.16;91.57;97732.84;104666;1274;73954;-68
2022/04/09 06:01:53;;;;;;;8.10;3.10;;;;;;;2.29;89.92;97734.07;104811;1274;69716;-69
2022/04/09 06:04:42;;;;;;;8.90;3.20;;;;;;;2.38;89.08;97738.77;104648;1275;71592;-69
2022/04/09 06:07:30;;;;;;;9.20;3.40;;;;;;;2.45;88.85;97744.80;104649;1274;60051;-67
2022/04/09 06:10:24;;;;;;;9.50;3.50;;;;;;;2.54;87.28;97743.44;104864;1274;59560;-68
2022/04/09 06:13:13;;;;;;;9.10;2.80;;;;;;;2.70;87.22;97744.76;104777;1274;74535;-70
2022/04/09 06:16:05;;;;;;;7.40;2.40;;;;;;;2.90;86.28;97743.80;104663;1275;69812;-69
2022/04/09 06:18:55;;;;;;;9.50;3.20;;;;;;;3.21;85.00;97743.02;104671;1274;73419;-67
2022/04/09 06:21:43;;;;;;;8.30;3.00;;;;;;;3.76;83.61;97748.64;104593;1274;59726;-69
2022/04/09 06:24:32;;;;;;;9.50;3.10;;;;;;;4.02;81.33;97746.59;104662;1275;60488;-68
2022/04/09 06:27:20;;;;;;;10.90;2.60;;;;;;;4.38;78.21;97750.41;104682;1275;72458;-70
2022/04/09 06:30:11;;;;;;;7.50;2.40;;;;;;;4.04;76.97;97753.44;105039;1274;69319;-68
2022/04/09 06:33:04;;;;;;;7.70;2.90;;;;;;;3.82;78.18;97754.96;104787;1275;73593;-71
2022/04/09 06:35:56;;;;;;;10.40;3.70;;;;;;;3.68;78.85;97754.27;105111;1278;59828;-69
2022/04/09 06:38:53;;;;;;;9.30;3.00;;;;;;;3.73;78.99;97754.68;105174;1278;62127;-70
2022/04/09 06:41:51;;;;;;;10.10;3.80;;;;;;;4.94;75.75;97752.73;105014;1278;73943;-68
2022/04/09 06:44:47;;;;;;;10.50;3.00;;;;;;;6.22;69.50;97746.77;104781;1278;69718;-73
2022/04/09 06:47:38;;;;;;;8.70;2.40;;;;;;;7.91;64.93;97743.20;104755;1278;73967;-70
2022/04/09 06:50:27;;;;;;;7.50;2.40;;;;;;;9.40;57.50;97733.40;104383;1278;59730;-70
2022/04/09 06:53:15;;;;;;;7.80;2.20;;;;;;;10.99;53.89;97732.71;104403;1277;60540;-71
2022/04/09 06:56:05;;;;;;;8.30;2.20;;;;;;;11.69;48.70;97728.30;104408;1278;73868;-70
2022/04/09 06:58:53;;;;;;;7.80;2.10;;;;;;;12.14;47.07;97730.41;104299;1278;68435;-68
2022/04/09 07:01:42;;;;;;;7.10;1.80;;;;;;;12.07;46.27;97731.36;104591;1278;72268;-69
2022/04/09 07:04:30;;;;;;;8.00;1.80;;;;;;;12.92;44.84;97737.02;104315;1277;59685;-68
2022/04/09 07:07:23;;;;;;;7.10;1.60;;;;;;;12.57;45.66;97737.59;104663;1274;59640;-70
2022/04/09 07:10:11;;;;;;;8.80;2.00;;;;;;;11.93;45.91;97745.29;104656;1275;74193;-70
2022/04/09 07:12:59;;;;;;;8.80;1.90;;;;;;;10.54;46.72;97753.52;104978;1274;69117;-71
2022/04/09 07:15:47;;;;;;;7.70;1.90;;;;;;;10.25;48.23;97764.85;104720;1275;72079;-68
2022/04/09 07:18:35;;;;;;;9.40;2.40;;;;;;;9.38;49.85;97769.02;104736;1275;59754;-70
2022/04/09 07:21:23;;;;;;;7.90;2.10;;;;;;;9.47;49.75;97773.65;105019;1274;61090;-72
2022/04/09 07:24:12;;;;;;;9.00;2.40;;;;;;;8.64;52.29;97780.03;104682;1275;73858;-69
2022/04/09 07:27:00;;;;;;;10.00;2.30;;;;;;;8.34;53.40;97782.32;104962;1274;68875;-71
2022/04/09 07:29:48;;;;;;;11.90;2.30;;;;;;;9.80;50.56;97778.33;104685;1274;73364;-69
2022/04/09 07:32:37;;;;;;;7.30;1.70;;;;;;;11.27;47.08;97774.21;104678;1275;59708;-67
2022/04/09 07:35:26;;;;;;;8.50;2.10;;;;;;;11.13;45.23;97782.09;104822;1274;60497;-70
2022/04/09 07:38:14;;;;;;;7.80;1.90;;;;;;;10.67;45.74;97792.65;105028;1274;74039;-69
2022/04/09 07:41:02;;;;;;;10.90;2.50;;;;;;;10.55;46.12;97792.17;104633;1275;68346;-72
2022/04/09 07:43:51;;;;;;;8.30;2.10;;;;;;;10.33;46.95;97800.92;104687;1274;73522;-69
2022/04/09 07:46:39;;;;;;;9.60;2.30;;;;;;;11.07;45.65;97803.46;104948;1274;59644;-69
2022/04/09 07:49:27;;;;;;;8.70;2.40;;;;;;;11.65;42.84;97801.91;104922;1274;62167;-71
2022/04/09 07:52:15;;;;;;;8.60;1.90;;;;;;;12.15;40.84;97800.76;104702;1274;72873;-67
2022/04/09 07:55:04;;;;;;;7.10;1.80;;;;;;;13.21;38.31;97803.73;104708;1275;69854;-70
2022/04/09 07:57:54;;;;;;;6.90;2.00;;;;;;;14.52;36.75;97805.94;104672;1274;70723;-69
2022/04/09 08:00:44;;;;;;;7.40;1.70;;;;;;;14.97;33.84;97804.83;104837;1275;59705;-71
2022/04/09 08:03:32;;;;;;;8.90;2.00;;;;;;;15.20;33.41;97807.80;104702;1274;61171;-69
2022/04/09 08:06:20;;;;;;;7.80;1.70;;;;;;;15.39;32.49;97811.27;104664;1274;74778;-69
2022/04/09 08:09:07;;;;;;;8.30;1.80;;;;;;;15.40;32.79;97817.16;104706;1275;68669;-69
2022/04/09 08:11:56;;;;;;;6.60;1.70;;;;;;;15.92;32.51;97815.36;104654;1275;72962;-70
2022/04/09 08:14:44;;;;;;;8.10;1.90;;;;;;;16.99;31.26;97814.96;104647;1274;59611;-69
2022/04/09 08:17:32;;;;;;;8.60;2.30;;;;;;;16.97;29.87;97824.49;104851;1274;60445;-69
2022/04/09 08:20:21;;;;;;;7.70;1.70;;;;;;;17.04;29.47;97824.43;104718;1274;74064;-69
2022/04/09 08:23:09;;;;;;;7.10;1.60;;;;;;;17.01;28.76;97831.87;104686;1274;67936;-70
2022/04/09 08:25:58;;;;;;;7.40;1.50;;;;;;;16.80;30.07;97838.45;104610;1274;73554;-70
2022/04/09 08:28:46;;;;;;;8.60;1.80;;;;;;;17.41;28.67;97841.60;104596;1274;59797;-70
2022/04/09 08:31:35;;;;;;;6.90;1.70;;;;;;;17.78;27.36;97842.27;104656;1274;60515;-71
2022/04/09 08:34:24;;;;;;;7.70;1.90;;;;;;;18.18;27.12;97850.59;104617;1274;74684;-71
2022/04/09 08:37:12;;;;;;;7.90;1.70;;;;;;;17.44;27.69;97854.46;104656;1275;67595;-71
2022/04/09 08:40:02;;;;;;;8.00;1.70;;;;;;;15.88;29.92;97857.50;105168;1274;71897;-70
2022/04/09 08:42:51;;;;;;;6.90;2.00;;;;;;;14.90;31.56;97864.39;104720;1274;59710;-69
2022/04/09 08:45:42;;;;;;;7.80;1.90;;;;;;;15.25;31.46;97865.76;104692;1274;59706;-68
2022/04/09 08:48:31;;;;;;;6.90;1.90;;;;;;;14.76;31.34;97860.84;104891;1275;72058;-72
2022/04/09 08:51:19;;;;;;;6.80;1.70;;;;;;;14.65;31.37;97862.20;105241;1274;68427;-69
2022/04/09 08:54:23;;;;;;;6.60;1.60;;;;;;;14.74;32.22;97858.61;104860;1274;71908;-70
2022/04/09 08:57:11;;;;;;;9.00;1.60;;;;;;;14.33;32.21;97861.89;104710;1274;59708;-68
2022/04/09 09:00:06;;;;;;;10.80;1.80;;;;;;;13.07;34.00;97869.59;104893;1276;61241;-71
2022/04/09 09:02:57;;;;;;;8.20;1.50;;;;;;;11.31;37.58;97896.20;104673;1275;73613;-70
2022/04/09 09:05:52;;;;;;;7.90;1.80;;;;;;;10.11;42.40;97914.61;104913;1274;294624;-68
2022/04/09 09:08:43;;;;;;;11.00;2.60;;;;;;;9.42;45.49;97914.04;104667;1274;73304;-67
2022/04/09 09:11:48;;;;;;;9.80;2.70;;;;;;;10.67;44.73;97901.65;104768;1274;59642;-70
2022/04/09 09:14:43;;;;;;;13.50;2.70;;;;;;;12.55;41.42;97897.52;104941;1275;60177;-70
2022/04/09 09:17:32;;;;;;;8.10;2.10;;;;;;;13.91;37.37;97894.50;104885;1275;73928;-70
2022/04/09 09:20:20;;;;;;;6.90;1.90;;;;;;;14.94;35.26;97898.33;104713;1274;66774;-71
2022/04/09 09:23:19;;;;;;;10.60;1.90;;;;;;;15.77;32.36;97895.19;104623;1274;74260;-68
2022/04/09 09:26:07;;;;;;;8.20;2.00;;;;;;;15.74;30.99;97890.11;104631;1275;59821;-69
2022/04/09 09:28:56;;;;;;;7.70;2.20;;;;;;;14.99;32.45;97897.87;104708;1274;60756;-69
2022/04/09 09:31:46;;;;;;;8.70;2.20;;;;;;;15.18;31.55;97897.84;104834;1274;73992;-70
2022/04/09 09:34:34;;;;;;;9.40;2.00;;;;;;;14.41;33.48;97900.83;104631;1275;68864;-72
2022/04/09 09:37:28;;;;;;;9.10;2.00;;;;;;;13.90;34.90;97902.77;104666;1274;73507;-69
2022/04/09 09:40:32;;;;;;;9.70;2.20;;;;;;;13.33;34.82;97900.63;104659;1274;59840;-68
2022/04/09 09:43:22;;;;;;;8.20;1.80;;;;;;;12.07;35.27;97918.59;104680;1274;59775;-70
2022/04/09 09:46:10;;;;;;;7.80;2.10;;;;;;;11.10;36.77;97928.20;104671;1274;74006;-66
2022/04/09 09:48:58;;;;;;;8.40;1.80;;;;;;;10.13;38.80;97941.10;104642;1274;69661;-71
2022/04/09 09:52:08;;;;;;;8.90;2.50;;;;;;;9.04;41.68;97970.02;104857;1275;74853;-69
2022/04/09 09:55:10;;;;;;;6.10;1.70;;;;;;;7.91;51.16;98014.30;104833;1275;59553;-71
2022/04/09 09:58:04;;;;;;;5.80;1.60;;;;;;;7.29;56.91;98022.66;104828;1274;61672;-70
2022/04/09 10:00:58;;;;;;;8.90;1.60;;;;;;;6.71;59.71;98021.56;104511;1275;73844;-73
2022/04/09 10:03:47;;;;;;;7.10;1.60;;;;;;;6.32;61.35;98012.42;104774;1274;68461;-69
2022/04/09 10:06:37;;;;;;;7.10;1.80;;;;;;;7.23;59.57;98017.23;104793;1274;72890;-70
2022/04/09 10:09:26;;;;;;;13.10;2.50;;;;;;;9.48;54.21;98006.69;104959;1274;59671;-70
2022/04/09 10:12:21;;;;;;;6.80;1.90;;;;;;;11.45;48.08;97997.42;104694;1275;61159;-69
2022/04/09 10:15:10;;;;;;;7.80;2.00;;;;;;;12.73;42.19;97990.07;104808;1275;72325;-72
2022/04/09 10:18:01;;;;;;;9.20;2.10;;;;;;;14.07;40.03;97983.37;104907;1274;68658;-70
2022/04/09 10:21:01;;;;;;;7.70;1.80;;;;;;;15.17;37.71;97981.23;105008;1275;73032;-72
2022/04/09 10:23:52;;;;;;;8.30;1.90;;;;;;;15.88;36.11;97980.01;104684;1274;59668;-70
2022/04/09 10:26:41;;;;;;;8.20;2.10;;;;;;;16.48;34.96;97994.18;104707;1274;60248;-70
2022/04/09 10:29:47;;;;;;;8.30;2.20;;;;;;;16.46;33.42;97991.70;104952;1276;72849;-68
2022/04/09 10:32:44;;;;;;;8.40;1.90;;;;;;;16.07;33.68;97989.86;104874;1275;68606;-68
2022/04/09 10:35:44;;;;;;;7.90;1.90;;;;;;;16.20;33.78;97989.16;104574;1274;71373;-69
2022/04/09 10:38:36;;;;;;;8.10;2.00;;;;;;;16.49;33.04;97981.71;104659;1274;59851;-69
2022/04/09 10:41:25;;;;;;;7.00;1.90;;;;;;;16.38;32.66;97983.38;104719;1274;60541;-68
2022/04/09 10:44:33;;;;;;;7.80;1.80;;;;;;;15.45;32.84;97978.61;104793;1275;73221;-69
2022/04/09 10:47:21;;;;;;;8.70;1.70;;;;;;;14.40;33.62;97976.39;104917;1274;69923;-69
2022/04/09 10:50:11;;;;;;;8.70;2.00;;;;;;;12.96;35.97;97989.38;104696;1275;73849;-70
2022/04/09 10:53:00;;;;;;;9.90;1.80;;;;;;;11.91;38.45;98002.58;104690;1275;59738;-68
2022/04/09 10:56:32;;;;;;;9.70;2.00;;;;;;;10.97;40.17;98012.55;104617;1275;60942;-69
2022/04/09 10:59:30;;;;;;;7.20;1.50;;;;;;;10.68;39.15;98012.73;105112;1274;73004;-71
2022/04/09 11:02:17;;;;;;;7.60;1.80;;;;;;;11.24;37.78;98010.48;104882;1274;69650;-70
2022/04/09 11:05:22;;;;;;;8.40;2.20;;;;;;;11.94;36.26;98017.02;103345;1274;1002522;-70
2022/04/09 11:08:20;;;;;;;10.50;2.30;;;;;;;12.29;34.90;98012.97;103852;1275;1003929;-69
2022/04/09 11:11:10;;;;;;;8.50;1.90;;;;;;;12.58;34.99;98019.77;104556;1275;59865;-69
2022/04/09 11:14:01;;;;;;;9.70;2.10;;;;;;;13.36;33.06;98020.80;104812;1274;73708;-69
2022/04/09 11:16:50;;;;;;;8.30;1.50;;;;;;;14.03;31.49;98021.40;104797;1277;68570;-71
2022/04/09 11:19:38;;;;;;;8.50;1.80;;;;;;;14.52;29.92;98025.52;104707;1275;73497;-69
2022/04/09 11:22:44;;;;;;;7.70;1.70;;;;;;;14.91;28.19;98021.98;105434;1274;59759;-68
2022/04/09 11:25:32;;;;;;;8.60;1.70;;;;;;;15.15;27.32;98028.25;106901;1274;61043;-68
2022/04/09 11:28:40;;;;;;;7.70;2.20;;;;;;;15.16;27.43;98032.46;107273;1274;71996;-70
2022/04/09 11:31:28;;;;;;;7.10;1.60;;;;;;;15.28;27.71;98027.36;107015;1274;68532;-69
2022/04/09 11:34:21;;;;;;;9.00;1.90;;;;;;;15.54;27.50;98039.34;106607;1274;71622;-73
2022/04/09 11:37:11;;;;;;;7.80;1.30;;;;;;;14.42;28.01;98037.45;105218;1277;59787;-72
2022/04/09 11:40:07;;;;;;;7.90;1.50;;;;;;;13.10;29.19;98054.83;104921;1275;59707;-70
2022/04/09 11:42:57;;;;;;;7.70;1.70;;;;;;;11.95;30.77;98057.27;104660;1275;74814;-72
2022/04/09 11:45:45;;;;;;;7.50;1.70;;;;;;;11.73;31.44;98066.69;104783;1274;68709;-73
2022/04/09 11:48:34;;;;;;;7.10;1.60;;;;;;;11.53;31.93;98063.13;104391;1275;71395;-69
2022/04/09 11:51:23;;;;;;;9.40;2.30;;;;;;;10.77;34.13;98067.52;104768;1275;59704;-71
2022/04/09 11:54:17;;;;;;;8.80;2.10;;;;;;;10.32;35.28;98073.36;104706;1274;62112;-71
2022/04/09 11:57:11;;;;;;;10.20;2.20;;;;;;;10.45;36.01;98074.80;104941;1274;73311;-72
2022/04/09 12:00:01;;;;;;;8.00;1.70;;;;;;;10.61;34.36;98073.50;104823;1274;67576;-68
2022/04/09 12:03:06;;;;;;;12.10;2.60;;;;;;;10.19;34.46;98080.98;104872;1275;73576;-69
2022/04/09 12:05:54;;;;;;;8.60;2.20;;;;;;;10.35;34.09;98080.15;104721;1275;59586;-70
2022/04/09 12:08:44;;;;;;;9.30;2.10;;;;;;;10.29;34.67;98086.16;104572;1275;59559;-71
2022/04/09 12:11:32;;;;;;;7.80;2.10;;;;;;;10.09;35.40;98091.55;104738;1274;72727;-68
2022/04/09 12:14:21;;;;;;;9.10;1.90;;;;;;;9.76;35.91;98088.17;104773;1274;69688;-68
2022/04/09 12:17:15;;;;;;;6.50;1.80;;;;;;;9.64;36.85;98100.02;104663;1274;74477;-69
2022/04/09 12:20:31;;;;;;;7.50;1.60;;;;;;;9.39;36.07;98103.39;104691;1275;59787;-69
2022/04/09 12:23:31;;;;;;;9.70;2.10;;;;;;;9.26;36.18;98107.73;105105;1274;60617;-70
2022/04/09 12:26:24;;;;;;;7.10;1.30;;;;;;;9.22;35.57;98114.19;103370;1275;1003134;-71
2022/04/09 12:29:20;;;;;;;5.90;1.50;;;;;;;9.06;34.71;98111.15;104869;1275;66470;-68
2022/04/09 12:32:26;;;;;;;7.50;1.90;;;;;;;9.08;35.24;98104.86;104781;1274;72411;-71
2022/04/09 12:35:14;;;;;;;8.90;1.90;;;;;;;9.08;36.53;98112.58;104871;1274;59630;-70
2022/04/09 12:38:03;;;;;;;7.10;1.90;;;;;;;9.07;35.99;98114.27;104710;1274;60616;-72
2022/04/09 12:41:04;;;;;;;6.70;1.70;;;;;;;9.00;35.10;98113.23;104549;1275;71018;-71
2022/04/09 12:43:54;;;;;;;7.20;1.70;;;;;;;8.85;36.35;98121.45;104562;1274;68689;-68
2022/04/09 12:46:48;;;;;;;8.10;1.90;;;;;;;8.77;36.26;98126.89;104691;1274;73558;-70
2022/04/09 12:49:39;;;;;;;8.60;1.70;;;;;;;8.82;36.78;98131.14;104642;1274;59767;-68
2022/04/09 12:52:28;;;;;;;7.00;1.50;;;;;;;8.86;36.29;98130.73;104593;1274;62140;-69
2022/04/09 12:55:22;;;;;;;8.90;1.70;;;;;;;8.76;35.05;98131.53;104878;1274;73047;-69
2022/04/09 12:58:10;;;;;;;6.80;1.80;;;;;;;8.43;35.88;98135.38;104554;1274;67865;-69
2022/04/09 13:00:58;;;;;;;8.80;2.40;;;;;;;8.35;37.83;98149.86;104829;1274;73325;-68
2022/04/09 13:03:47;;;;;;;10.20;2.30;;;;;;;8.32;40.10;98152.35;104767;1274;60030;-66
2022/04/09 13:06:35;;;;;;;8.10;1.80;;;;;;;8.36;40.68;98154.91;104998;1274;59760;-69
2022/04/09 13:09:23;;;;;;;7.70;1.70;;;;;;;8.28;40.12;98165.04;104781;1274;73711;-69
2022/04/09 13:12:13;;;;;;;7.60;1.40;;;;;;;8.18;38.68;98169.23;104738;1275;68455;-70
2022/04/09 13:15:03;;;;;;;9.00;2.40;;;;;;;8.13;40.47;98177.11;104778;1274;73646;-67
2022/04/09 13:17:51;;;;;;;10.10;2.50;;;;;;;7.96;44.07;98187.59;104752;1274;59666;-70
2022/04/09 13:20:41;;;;;;;10.70;2.80;;;;;;;7.72;44.94;98182.18;104619;1275;60516;-67
2022/04/09 13:23:30;;;;;;;10.60;2.50;;;;;;;7.52;45.53;98185.77;104996;1275;73767;-69